Time;durP1;ratioP1;P1;durP2;ratioP2;P2;SDS_P1;SDS_P2;PMS_P1;PMS_P2;Temp;Humidity;BMP_temperature;BMP_pressure;BME280_temperature;BME280_humidity;BME280_pressure;Samples;Min_cycle;Max_cycle;Signal;HPM_P1;HPM_P2
2023/08/28 00:00:30;;;;;;;11.70;9.57;;;;;;;18.25;100.00;98984.75;4843385;29;20030;-83
2023/08/28 00:02:56;;;;;;;10.45;8.93;;;;;;;18.37;100.00;98997.69;4843735;29;20030;-83
2023/08/28 00:05:21;;;;;;;8.98;8.18;;;;;;;18.47;100.00;99018.78;4843304;29;20056;-83
2023/08/28 00:07:47;;;;;;;11.05;9.65;;;;;;;18.45;100.00;99018.91;4843573;29;20053;-83
2023/08/28 00:10:12;;;;;;;9.68;8.60;;;;;;;18.44;100.00;99011.13;4843268;29;20046;-83
2023/08/28 00:12:40;;;;;;;8.60;7.70;;;;;;;18.55;100.00;99023.38;4842831;29;20459;-83
2023/08/28 00:15:07;;;;;;;11.60;9.07;;;;;;;18.39;100.00;98990.47;4843444;29;20034;-83
2023/08/28 00:17:32;;;;;;;8.82;7.93;;;;;;;18.35;100.00;98985.59;4842983;29;20147;-82
2023/08/28 00:19:58;;;;;;;9.18;8.27;;;;;;;18.43;100.00;98998.94;4843124;29;20041;-83
2023/08/28 00:22:23;;;;;;;8.50;7.60;;;;;;;18.44;100.00;98990.03;4842874;29;20158;-83
2023/08/28 00:24:48;;;;;;;8.65;7.85;;;;;;;18.38;100.00;98982.69;4856989;29;20037;-83
2023/08/28 00:27:14;;;;;;;8.05;7.35;;;;;;;18.47;100.00;99010.03;4841651;29;20034;-83
2023/08/28 00:29:39;;;;;;;9.57;7.95;;;;;;;18.49;100.00;99016.81;4842829;29;20030;-83
2023/08/28 00:32:05;;;;;;;9.68;7.28;;;;;;;18.48;100.00;99023.06;4842621;29;20025;-83
2023/08/28 00:34:30;;;;;;;8.57;7.68;;;;;;;18.43;100.00;99017.38;4825307;29;20033;-83
2023/08/28 00:36:56;;;;;;;7.55;6.75;;;;;;;18.49;100.00;99029.19;4841618;29;20061;-83
2023/08/28 00:39:21;;;;;;;7.70;6.90;;;;;;;18.32;100.00;99012.22;4842631;29;20034;-83
2023/08/28 00:41:46;;;;;;;7.68;6.88;;;;;;;18.34;100.00;99015.56;4842551;29;20078;-83
2023/08/28 00:44:12;;;;;;;9.73;8.45;;;;;;;18.42;100.00;99034.19;4843048;29;20030;-83
2023/08/28 00:46:38;;;;;;;9.82;7.28;;;;;;;18.34;100.00;99019.03;4842294;29;20029;-83
2023/08/28 00:49:04;;;;;;;8.63;7.75;;;;;;;18.33;100.00;99014.75;4826302;29;20026;-83
2023/08/28 00:51:30;;;;;;;8.25;7.20;;;;;;;18.08;100.00;98979.19;4842253;29;20030;-83
2023/08/28 00:53:56;;;;;;;7.15;6.45;;;;;;;18.25;100.00;99017.22;4842268;29;20026;-83
2023/08/28 00:56:21;;;;;;;7.70;6.90;;;;;;;18.12;100.00;99008.75;4842189;29;20033;-83
2023/08/28 00:58:47;;;;;;;8.05;7.25;;;;;;;18.14;100.00;99009.41;4842375;29;20034;-83
2023/08/28 01:01:12;;;;;;;9.43;6.55;;;;;;;18.18;100.00;99011.66;4842536;29;20022;-83
2023/08/28 01:03:38;;;;;;;8.35;6.53;;;;;;;18.23;100.00;99028.88;4842571;29;20034;-83
2023/08/28 01:06:13;;;;;;;6.78;6.07;;;;;;;18.18;100.00;99029.28;4842760;29;20050;-83
2023/08/28 01:08:59;;;;;;;8.00;7.10;;;;;;;18.19;100.00;99041.47;4841756;29;20458;-83
2023/08/28 01:11:35;;;;;;;7.95;7.07;;;;;;;18.10;100.00;99029.09;4785540;30;20043;-83
2023/08/28 01:14:14;;;;;;;6.97;6.28;;;;;;;18.10;100.00;99039.66;4785429;29;20079;-83
2023/08/28 01:16:43;;;;;;;9.40;6.68;;;;;;;18.11;100.00;99051.84;4785467;30;20039;-83
2023/08/28 01:19:17;;;;;;;8.75;6.68;;;;;;;18.08;100.00;99060.88;4785429;30;20031;-83
2023/08/28 01:21:47;;;;;;;8.13;6.25;;;;;;;18.11;100.00;99080.84;4792501;29;20030;-83
2023/08/28 01:24:20;;;;;;;7.07;6.38;;;;;;;17.98;100.00;99053.88;4803340;29;20470;-83
2023/08/28 01:26:45;;;;;;;5.75;5.25;;;;;;;18.05;100.00;99069.03;4803191;29;20042;-83
2023/08/28 01:29:11;;;;;;;6.97;6.30;;;;;;;18.05;100.00;99079.59;4803338;29;20042;-83
2023/08/28 01:31:36;;;;;;;7.70;6.13;;;;;;;17.98;100.00;99070.53;4803117;29;20067;-83
2023/08/28 01:34:01;;;;;;;6.60;5.82;;;;;;;18.03;100.00;99073.59;4803219;29;20138;-83
2023/08/28 01:37:09;;;;;;;7.20;6.50;;;;;;;18.04;100.00;99077.09;4802885;29;20122;-83
2023/08/28 01:39:42;;;;;;;8.40;6.65;;;;;;;17.99;100.00;99077.47;4749178;30;20031;-83
2023/08/28 01:42:09;;;;;;;7.85;5.40;;;;;;;17.85;100.00;99060.22;4749378;30;20538;-83
2023/08/28 01:44:35;;;;;;;6.60;5.20;;;;;;;17.89;100.00;99066.06;4749179;30;20028;-83
2023/08/28 01:47:01;;;;;;;6.38;4.75;;;;;;;17.87;100.00;99053.03;4748698;30;20044;-83
2023/08/28 01:49:29;;;;;;;6.50;5.75;;;;;;;17.94;100.00;99063.84;4796841;29;20054;-83
2023/08/28 01:51:55;;;;;;;5.40;4.90;;;;;;;17.94;100.00;99067.31;4802791;29;20452;-83
2023/08/28 01:54:21;;;;;;;6.47;5.25;;;;;;;17.86;100.00;99048.69;4787769;29;20039;-83
2023/08/28 01:56:47;;;;;;;5.88;5.35;;;;;;;17.89;100.00;99056.34;4802596;29;20053;-83
2023/08/28 01:59:12;;;;;;;6.97;5.32;;;;;;;17.94;100.00;99064.69;4802868;29;20035;-83
2023/08/28 02:01:37;;;;;;;5.47;4.97;;;;;;;17.79;100.00;99042.31;4802560;29;20067;-83
2023/08/28 02:04:03;;;;;;;5.68;5.13;;;;;;;17.81;100.00;99045.63;4802834;29;20026;-83
2023/08/28 02:06:28;;;;;;;5.35;4.70;;;;;;;17.84;100.00;99069.09;4802519;29;20065;-83
2023/08/28 02:08:54;;;;;;;7.20;5.07;;;;;;;17.81;100.00;99079.06;4802680;29;20055;-83
2023/08/28 02:11:19;;;;;;;5.97;4.90;;;;;;;17.73;100.00;99060.41;4802581;29;20034;-83
2023/08/28 02:13:44;;;;;;;4.75;4.35;;;;;;;17.76;100.00;99068.06;4826463;29;20069;-83
2023/08/28 02:16:10;;;;;;;4.60;4.20;;;;;;;17.81;100.00;99076.41;4841305;29;20049;-83
2023/08/28 02:18:35;;;;;;;7.30;4.60;;;;;;;17.81;100.00;99069.34;4840996;29;20033;-83
2023/08/28 02:21:01;;;;;;;6.32;4.57;;;;;;;17.70;100.00;99062.34;4841038;29;20478;-83
2023/08/28 02:23:26;;;;;;;6.05;4.28;;;;;;;17.56;100.00;99057.41;4839845;29;20033;-83
2023/08/28 02:25:52;;;;;;;4.90;4.40;;;;;;;17.44;100.00;99032.09;4840751;29;20417;-83
2023/08/28 02:28:20;;;;;;;5.25;4.75;;;;;;;17.50;100.00;99051.84;4841616;29;20033;-83
2023/08/28 02:30:46;;;;;;;4.32;3.92;;;;;;;17.45;100.00;99058.31;4840852;29;20121;-83
2023/08/28 02:33:15;;;;;;;4.75;4.35;;;;;;;17.50;100.00;99072.91;4841023;29;20037;-83
2023/08/28 02:35:40;;;;;;;4.60;4.20;;;;;;;17.53;100.00;99085.78;4841013;29;20030;-83
2023/08/28 02:38:08;;;;;;;6.68;4.50;;;;;;;17.53;100.00;99077.88;4840968;29;20022;-83
2023/08/28 02:40:35;;;;;;;4.78;4.38;;;;;;;17.45;100.00;99079.38;4840659;29;20508;-83
2023/08/28 02:43:05;;;;;;;4.78;4.28;;;;;;;17.39;100.00;99065.91;4841332;29;20030;-83
2023/08/28 02:45:35;;;;;;;6.65;4.85;;;;;;;17.41;100.00;99062.19;4840900;29;20018;-83
2023/08/28 02:48:00;;;;;;;5.32;4.32;;;;;;;17.41;100.00;99061.34;4841008;29;20030;-83
2023/08/28 02:50:26;;;;;;;4.70;4.28;;;;;;;17.53;100.00;99072.63;4841053;29;20115;-83
2023/08/28 02:52:52;;;;;;;4.78;3.85;;;;;;;17.48;100.00;99065.09;4840554;29;20086;-83
2023/08/28 02:55:17;;;;;;;5.75;4.20;;;;;;;17.33;100.00;99048.81;4840044;29;20034;-83
2023/08/28 02:57:42;;;;;;;4.10;3.70;;;;;;;17.48;100.00;99066.91;4842699;29;20021;-83
2023/08/28 03:00:08;;;;;;;5.95;4.65;;;;;;;17.34;100.00;99057.56;4827780;29;20053;-83
2023/08/28 03:02:34;;;;;;;4.93;4.30;;;;;;;17.32;100.00;99056.84;4844434;29;20044;-83
2023/08/28 03:04:59;;;;;;;4.47;3.97;;;;;;;17.31;100.00;99052.53;4844312;29;20105;-83
2023/08/28 03:07:24;;;;;;;4.70;4.20;;;;;;;17.46;100.00;99085.47;4844314;29;20110;-83
2023/08/28 03:09:50;;;;;;;5.60;4.35;;;;;;;17.34;100.00;99062.81;4844302;29;20417;-83
2023/08/28 03:12:15;;;;;;;4.70;4.10;;;;;;;17.48;100.00;99086.16;4844037;29;20462;-83
2023/08/28 03:14:40;;;;;;;4.50;4.10;;;;;;;17.43;100.00;99083.09;4842756;29;20113;-83
2023/08/28 03:17:06;;;;;;;4.50;3.97;;;;;;;17.40;100.00;99071.06;4844132;29;20030;-83
2023/08/28 03:19:31;;;;;;;5.35;4.60;;;;;;;17.45;100.00;99074.13;4842781;29;20032;-83
2023/08/28 03:21:56;;;;;;;4.57;4.13;;;;;;;17.25;100.00;99046.00;4844169;29;20108;-83
2023/08/28 03:24:22;;;;;;;5.55;4.00;;;;;;;17.45;100.00;99075.94;4844095;29;20053;-83
2023/08/28 03:26:48;;;;;;;4.38;3.80;;;;;;;17.26;100.00;99045.03;4842705;29;20018;-83
2023/08/28 03:29:13;;;;;;;7.40;5.10;;;;;;;17.38;100.00;99086.13;4844152;29;20029;-83
2023/08/28 03:31:38;;;;;;;4.20;3.80;;;;;;;17.39;100.00;99095.69;4843842;29;20455;-83
2023/08/28 03:34:04;;;;;;;4.65;3.90;;;;;;;17.39;100.00;99095.69;4842577;29;20059;-83
2023/08/28 03:36:29;;;;;;;5.53;4.88;;;;;;;17.18;100.00;99066.72;4843869;29;20028;-83
2023/08/28 03:38:55;;;;;;;5.60;4.75;;;;;;;17.32;100.00;99091.91;4843764;29;20339;-83
2023/08/28 03:41:20;;;;;;;5.78;4.05;;;;;;;17.23;100.00;99089.19;4843723;29;20078;-83
2023/08/28 03:43:45;;;;;;;4.22;3.90;;;;;;;17.16;100.00;99078.34;4843548;29;20037;-83
2023/08/28 03:46:11;;;;;;;4.47;4.07;;;;;;;17.28;100.00;99100.19;4844001;29;20053;-83
2023/08/28 03:48:36;;;;;;;5.07;4.05;;;;;;;17.28;100.00;99103.66;4843854;29;20061;-83
2023/08/28 03:51:01;;;;;;;4.63;4.22;;;;;;;17.17;100.00;99087.91;4842421;29;20026;-83
2023/08/28 03:53:27;;;;;;;4.95;4.10;;;;;;;17.27;100.00;99107.22;4843535;29;20064;-83
2023/08/28 03:55:53;;;;;;;4.10;3.80;;;;;;;17.30;100.00;99114.03;4842260;29;20021;-83
2023/08/28 03:58:20;;;;;;;4.88;4.30;;;;;;;17.11;100.00;99083.16;4843700;29;20029;-83
2023/08/28 04:00:46;;;;;;;4.85;4.32;;;;;;;17.22;100.00;99093.63;4842003;29;20125;-83
2023/08/28 04:03:11;;;;;;;4.35;3.95;;;;;;;17.29;100.00;99094.78;4843647;29;20116;-83
2023/08/28 04:05:38;;;;;;;6.30;4.40;;;;;;;17.25;100.00;99098.63;4842889;29;20026;-83
2023/08/28 04:08:04;;;;;;;4.63;4.22;;;;;;;17.24;100.00;99107.50;4842560;29;20041;-83
2023/08/28 04:10:29;;;;;;;5.30;3.97;;;;;;;17.12;100.00;99098.81;4843005;29;20090;-83
2023/08/28 04:12:54;;;;;;;5.85;4.40;;;;;;;17.24;100.00;99125.94;4843124;29;20041;-83
2023/08/28 04:15:20;;;;;;;6.38;5.25;;;;;;;17.20;100.00;99124.50;4842072;29;20502;-83
2023/08/28 04:17:45;;;;;;;5.75;5.05;;;;;;;17.17;100.00;99130.84;4842937;29;20085;-83
2023/08/28 04:20:13;;;;;;;6.13;4.82;;;;;;;17.27;100.00;99156.41;4843293;29;20085;-83
2023/08/28 04:22:45;;;;;;;5.38;4.57;;;;;;;17.16;100.00;99146.78;4841489;29;20370;-83
2023/08/28 04:25:11;;;;;;;6.13;4.53;;;;;;;17.14;100.00;99146.88;4843131;29;20371;-83
2023/08/28 04:27:37;;;;;;;4.85;4.18;;;;;;;17.32;100.00;99172.66;4842795;29;20033;-83
2023/08/28 04:30:04;;;;;;;4.13;3.72;;;;;;;17.14;100.00;99136.34;4842965;29;20033;-83
2023/08/28 04:32:29;;;;;;;6.10;4.07;;;;;;;17.16;100.00;99136.25;4842750;29;20026;-83
2023/08/28 04:34:55;;;;;;;4.55;3.90;;;;;;;17.16;100.00;99139.72;4842604;29;20509;-83
2023/08/28 04:37:22;;;;;;;4.82;4.30;;;;;;;17.24;100.00;99146.97;4843060;29;20371;-83
2023/08/28 04:39:47;;;;;;;4.38;3.97;;;;;;;17.22;100.00;99135.72;4842585;29;20032;-83
2023/08/28 04:42:14;;;;;;;5.53;4.43;;;;;;;17.33;100.00;99153.28;4842764;29;20377;-83
2023/08/28 04:44:39;;;;;;;4.05;3.67;;;;;;;17.16;100.00;99123.91;4842498;29;20666;-83
2023/08/28 04:47:05;;;;;;;6.05;4.00;;;;;;;17.18;100.00;99114.09;4842606;29;20073;-83
2023/08/28 04:49:30;;;;;;;6.32;4.15;;;;;;;17.22;100.00;99125.19;4842447;29;20030;-83
2023/08/28 04:51:55;;;;;;;7.35;4.25;;;;;;;17.25;100.00;99134.66;4842512;29;20021;-83
2023/08/28 04:54:21;;;;;;;4.18;3.78;;;;;;;17.28;100.00;99129.16;4842613;29;20136;-83
2023/08/28 04:56:46;;;;;;;5.57;4.32;;;;;;;17.28;100.00;99132.59;4842124;29;20026;-83
2023/08/28 04:59:12;;;;;;;3.97;3.58;;;;;;;17.32;100.00;99135.78;4842343;29;20026;-83
2023/08/28 05:01:37;;;;;;;4.50;4.05;;;;;;;17.31;100.00;99131.50;4842468;29;20025;-83
2023/08/28 05:04:03;;;;;;;3.97;3.67;;;;;;;17.17;100.00;99106.31;4825411;29;20082;-83
2023/08/28 05:06:28;;;;;;;6.38;4.13;;;;;;;17.36;100.00;99132.81;4842502;29;20058;-83
2023/08/28 05:08:54;;;;;;;4.32;3.90;;;;;;;17.26;100.00;99117.91;4841860;29;20041;-83
2023/08/28 05:11:19;;;;;;;4.57;4.03;;;;;;;17.36;100.00;99134.56;4842405;29;20032;-83
2023/08/28 05:13:44;;;;;;;5.05;3.90;;;;;;;17.39;100.00;99140.44;4842042;29;20073;-83
2023/08/28 05:16:10;;;;;;;4.15;3.75;;;;;;;17.27;100.00;99130.91;4842394;29;20026;-83
2023/08/28 05:18:35;;;;;;;3.80;3.50;;;;;;;17.36;100.00;99139.84;4842206;29;20030;-83
2023/08/28 05:21:00;;;;;;;4.53;3.60;;;;;;;17.46;100.00;99151.31;4841432;29;20105;-83
2023/08/28 05:23:26;;;;;;;4.70;3.88;;;;;;;17.40;100.00;99147.38;4842184;29;20120;-83
2023/08/28 05:25:52;;;;;;;4.90;3.80;;;;;;;17.38;100.00;99140.56;4841980;29;20074;-83
2023/08/28 05:28:18;;;;;;;4.53;3.92;;;;;;;17.45;100.00;99144.38;4840724;29;20030;-83
2023/08/28 05:30:43;;;;;;;5.53;4.13;;;;;;;17.50;100.00;99154.53;4841358;29;20026;-83
2023/08/28 05:33:08;;;;;;;4.75;4.20;;;;;;;17.42;100.00;99134.91;4841769;29;20026;-83
2023/08/28 05:35:34;;;;;;;4.75;3.85;;;;;;;17.48;100.00;99136.19;4840473;29;20022;-83
2023/08/28 05:37:59;;;;;;;5.60;4.00;;;;;;;17.47;100.00;99134.53;4841711;29;20266;-83
2023/08/28 05:40:24;;;;;;;4.63;3.85;;;;;;;17.58;100.00;99152.91;4841852;29;20025;-83
2023/08/28 05:42:50;;;;;;;4.30;3.90;;;;;;;17.61;100.00;99151.81;4841882;29;20117;-83
2023/08/28 05:45:16;;;;;;;4.30;3.90;;;;;;;17.66;100.00;99174.19;4841664;29;20022;-83
2023/08/28 05:47:41;;;;;;;3.60;3.30;;;;;;;17.52;100.00;99142.88;4841272;29;20034;-83
2023/08/28 05:50:07;;;;;;;5.25;4.15;;;;;;;17.62;100.00;99161.41;4841481;29;20030;-83
2023/08/28 05:52:32;;;;;;;3.92;3.53;;;;;;;17.46;100.00;99136.34;4841717;29;20037;-82
2023/08/28 05:54:58;;;;;;;4.95;3.80;;;;;;;17.51;100.00;99135.94;4841455;29;20030;-82
2023/08/28 05:57:23;;;;;;;6.03;4.25;;;;;;;17.46;100.00;99141.59;4841514;29;20521;-83
2023/08/28 05:59:50;;;;;;;3.50;3.20;;;;;;;17.56;100.00;99149.56;4841178;29;20438;-83
2023/08/28 06:02:16;;;;;;;3.45;3.15;;;;;;;17.49;100.00;99140.53;4857919;29;20029;-83
2023/08/28 06:04:45;;;;;;;4.47;3.65;;;;;;;17.59;100.00;99145.84;4843168;29;20381;-83
2023/08/28 06:07:10;;;;;;;5.72;4.28;;;;;;;17.59;100.00;99136.16;4860058;29;20030;-83
2023/08/28 06:09:36;;;;;;;4.85;3.70;;;;;;;17.81;100.00;99163.34;4859504;29;20061;-83
2023/08/28 06:12:01;;;;;;;3.90;3.50;;;;;;;17.79;100.00;99149.47;4858209;29;20017;-83
2023/08/28 06:14:27;;;;;;;5.03;4.43;;;;;;;17.87;100.00;99155.78;4859668;29;20026;-83
2023/08/28 06:16:53;;;;;;;4.07;3.67;;;;;;;17.87;100.00;99145.22;4858193;29;20073;-83
2023/08/28 06:19:18;;;;;;;5.35;4.30;;;;;;;17.87;100.00;99141.78;4859395;29;20034;-83
2023/08/28 06:21:45;;;;;;;4.90;3.38;;;;;;;17.87;100.00;99142.59;4859298;29;20026;-83
2023/08/28 06:24:13;;;;;;;4.22;3.65;;;;;;;17.87;100.00;99136.50;4859757;29;20025;-83
2023/08/28 06:26:41;;;;;;;6.28;4.10;;;;;;;17.99;100.00;99153.03;4859686;29;20029;-83
2023/08/28 06:29:06;;;;;;;6.30;4.03;;;;;;;17.89;100.00;99130.13;4859485;29;20033;-83
2023/08/28 06:31:32;;;;;;;4.47;3.70;;;;;;;18.01;100.00;99140.59;4859751;29;20034;-83
2023/08/28 06:33:57;;;;;;;4.55;4.15;;;;;;;17.94;100.00;99129.72;4863004;29;20037;-83
2023/08/28 06:36:22;;;;;;;4.30;3.90;;;;;;;18.08;100.00;99147.84;4862078;29;20022;-83
2023/08/28 06:38:51;;;;;;;5.80;3.90;;;;;;;18.12;100.00;99140.50;4863192;29;20025;-83
2023/08/28 06:41:17;;;;;;;5.43;4.40;;;;;;;18.10;100.00;99126.63;4863283;29;20022;-83
2023/08/28 06:43:43;;;;;;;5.18;4.18;;;;;;;18.22;100.00;99137.91;4863457;29;20037;-83
2023/08/28 06:46:08;;;;;;;3.95;3.65;;;;;;;18.09;100.00;99109.97;4862905;29;20029;-83
2023/08/28 06:48:33;;;;;;;4.20;3.80;;;;;;;18.11;100.00;99097.47;4863385;29;20032;-83
2023/08/28 06:50:59;;;;;;;5.82;4.68;;;;;;;18.33;100.00;99130.75;4861635;29;20018;-83
2023/08/28 06:53:25;;;;;;;5.28;4.45;;;;;;;18.35;100.00;99110.34;4862985;29;20026;-83
2023/08/28 06:55:51;;;;;;;5.00;4.50;;;;;;;18.25;100.00;99085.75;4862835;29;20029;-83
2023/08/28 06:58:16;;;;;;;4.30;3.88;;;;;;;18.44;100.00;99098.16;4862951;29;20036;-83
2023/08/28 07:00:41;;;;;;;4.85;4.35;;;;;;;18.62;100.00;99114.16;4862751;29;20069;-83
2023/08/28 07:03:07;;;;;;;5.63;4.80;;;;;;;18.53;100.00;99089.41;4862548;29;20684;-83
2023/08/28 07:05:32;;;;;;;6.60;5.20;;;;;;;18.60;100.00;99079.19;4862965;29;20025;-83
2023/08/28 07:07:58;;;;;;;5.03;4.63;;;;;;;18.67;100.00;99075.03;4861492;29;20029;-83
2023/08/28 07:10:23;;;;;;;5.07;4.20;;;;;;;18.82;100.00;99099.22;4862743;29;20415;-83
2023/08/28 07:12:48;;;;;;;4.90;4.45;;;;;;;18.74;100.00;99086.72;4862301;29;20021;-83
2023/08/28 07:15:20;;;;;;;5.38;4.00;;;;;;;18.86;100.00;99112.00;4862654;29;20025;-83
2023/08/28 07:17:45;;;;;;;4.32;3.95;;;;;;;18.68;100.00;99088.06;4845925;29;20061;-83
2023/08/28 07:20:11;;;;;;;5.03;4.25;;;;;;;18.76;100.00;99095.34;4862380;29;20504;-83
2023/08/28 07:22:36;;;;;;;5.13;4.40;;;;;;;18.78;100.00;99098.66;4862529;29;20032;-83
2023/08/28 07:25:02;;;;;;;5.32;4.25;;;;;;;18.68;100.00;99088.06;4862180;29;20089;-83
2023/08/28 07:27:27;;;;;;;6.65;4.50;;;;;;;18.71;100.00;99102.84;4862492;29;20045;-83
2023/08/28 07:29:53;;;;;;;5.28;4.88;;;;;;;18.76;100.00;99129.63;4862410;29;20033;-83
2023/08/28 07:32:18;;;;;;;6.50;4.47;;;;;;;18.77;100.00;99136.56;4860974;29;20053;-83
2023/08/28 07:34:43;;;;;;;5.13;4.63;;;;;;;18.77;100.00;99148.94;4862094;29;20029;-83
2023/08/28 07:37:09;;;;;;;5.15;4.63;;;;;;;18.73;100.00;99158.09;4861889;29;20085;-83
2023/08/28 07:39:34;;;;;;;4.65;4.25;;;;;;;18.78;100.00;99185.72;4862384;29;20108;-83
2023/08/28 07:41:59;;;;;;;5.80;5.05;;;;;;;18.60;100.00;99163.56;4860778;29;20033;-83
2023/08/28 07:44:25;;;;;;;5.40;4.90;;;;;;;18.69;100.00;99186.50;4862063;29;20030;-82
2023/08/28 07:46:50;;;;;;;6.97;4.90;;;;;;;18.65;100.00;99200.94;4845317;29;20085;-83
2023/08/28 07:49:15;;;;;;;5.82;4.80;;;;;;;18.45;100.00;99178.91;4862512;29;20367;-83
2023/08/28 07:51:41;;;;;;;7.00;5.35;;;;;;;18.52;100.00;99201.16;4862289;29;20407;-83
2023/08/28 07:54:06;;;;;;;6.28;4.57;;;;;;;18.30;100.00;99183.72;4861911;29;20064;-83
2023/08/28 07:56:32;;;;;;;5.15;4.72;;;;;;;18.24;100.00;99186.88;4861935;29;20024;-83
2023/08/28 07:58:57;;;;;;;5.35;4.85;;;;;;;18.35;100.00;99221.06;4861801;29;20025;-83
2023/08/28 08:01:22;;;;;;;7.93;5.28;;;;;;;18.28;100.00;99221.72;4864115;29;20061;-83
2023/08/28 08:03:49;;;;;;;5.07;4.57;;;;;;;18.28;100.00;99229.63;4880510;29;20648;-83
2023/08/28 08:06:15;;;;;;;5.88;5.28;;;;;;;18.25;100.00;99227.28;4880339;29;20465;-83
2023/08/28 08:08:40;;;;;;;6.35;5.35;;;;;;;18.11;100.00;99221.34;4880366;29;20032;-83
2023/08/28 08:11:06;;;;;;;6.25;5.10;;;;;;;18.12;100.00;99225.69;4866154;29;20032;-83
2023/08/28 08:13:31;;;;;;;5.57;5.05;;;;;;;18.23;100.00;99243.22;4861345;29;20033;-83
2023/08/28 08:15:56;;;;;;;6.70;5.80;;;;;;;18.19;100.00;99226.81;4844266;29;20104;-83
2023/08/28 08:18:22;;;;;;;6.72;6.13;;;;;;;18.22;100.00;99228.38;4861338;29;20081;-83
2023/08/28 08:20:47;;;;;;;5.78;5.28;;;;;;;18.27;100.00;99228.78;4861630;29;20029;-83
2023/08/28 08:23:13;;;;;;;6.15;5.53;;;;;;;18.30;100.00;99218.00;4861316;29;20537;-83
2023/08/28 08:25:38;;;;;;;6.22;5.60;;;;;;;18.28;100.00;99204.09;4860998;29;20021;-83
2023/08/28 08:28:04;;;;;;;5.82;5.32;;;;;;;18.41;100.00;99217.06;4861041;29;20116;-83
2023/08/28 08:30:30;;;;;;;6.22;5.38;;;;;;;18.35;100.00;99194.72;4860716;29;20546;-83
2023/08/28 08:32:55;;;;;;;6.95;5.25;;;;;;;18.32;100.00;99188.84;4860856;29;20070;-83
2023/08/28 08:35:20;;;;;;;6.18;5.65;;;;;;;18.33;100.00;99195.78;4860695;29;20060;-82
2023/08/28 08:37:47;;;;;;;5.75;5.25;;;;;;;18.35;100.00;99178.06;4861125;29;20049;-83
2023/08/28 08:40:14;;;;;;;6.60;6.00;;;;;;;18.56;100.00;99186.75;4860719;29;20029;-82
2023/08/28 08:42:39;;;;;;;6.68;6.10;;;;;;;18.45;100.00;99179.75;4862260;29;20065;-83
2023/08/28 08:45:05;;;;;;;5.90;5.40;;;;;;;18.58;100.00;99199.78;4860907;29;20063;-83
2023/08/28 08:47:33;;;;;;;6.43;5.78;;;;;;;18.56;100.00;99189.38;4844592;29;20021;-83
2023/08/28 08:50:02;;;;;;;6.10;5.50;;;;;;;18.73;100.00;99185.31;4851868;29;20105;-84
2023/08/28 08:52:28;;;;;;;6.07;5.55;;;;;;;18.58;100.00;99157.59;4842735;29;20029;-83
2023/08/28 08:54:59;;;;;;;8.52;6.03;;;;;;;18.64;100.00;99170.25;4841612;29;20033;-83
2023/08/28 08:57:39;;;;;;;5.20;4.70;;;;;;;18.59;100.00;99170.66;4842328;29;20406;-83
2023/08/28 09:00:15;;;;;;;7.05;5.60;;;;;;;18.67;100.00;99183.19;4842515;29;20137;-83
2023/08/28 09:02:41;;;;;;;6.00;5.40;;;;;;;18.70;100.00;99180.28;4842568;29;20264;-87
2023/08/28 09:05:07;;;;;;;7.35;6.15;;;;;;;18.72;100.00;99162.53;4825636;29;20086;-86
2023/08/28 09:07:34;;;;;;;6.53;5.68;;;;;;;18.74;100.00;99165.03;4825869;29;20026;-85
2023/08/28 09:10:01;;;;;;;5.63;5.03;;;;;;;18.73;100.00;99169.47;4825626;29;20050;-85
2023/08/28 09:12:27;;;;;;;5.70;5.15;;;;;;;18.60;100.00;99160.94;4842366;29;20116;-84
2023/08/28 09:14:52;;;;;;;5.35;4.90;;;;;;;18.66;100.00;99192.88;4842270;29;20134;-84
2023/08/28 09:17:18;;;;;;;6.00;5.40;;;;;;;18.51;100.00;99183.69;4842181;29;20527;-83
2023/08/28 09:19:45;;;;;;;6.45;5.50;;;;;;;18.56;100.00;99180.63;4842264;29;20060;-83
2023/08/28 09:22:10;;;;;;;5.13;4.68;;;;;;;18.60;100.00;99161.78;4841962;29;20033;-84
2023/08/28 09:24:38;;;;;;;5.75;5.25;;;;;;;18.81;100.00;99177.53;4842054;29;20034;-83
2023/08/28 09:27:04;;;;;;;6.28;5.57;;;;;;;18.87;100.00;99147.13;4842051;29;20026;-84
2023/08/28 09:29:29;;;;;;;6.15;5.28;;;;;;;18.91;100.00;99130.88;4842405;29;20049;-84
2023/08/28 09:32:04;;;;;;;5.25;4.75;;;;;;;18.99;100.00;99153.97;4842394;29;20041;-83
2023/08/28 09:34:40;;;;;;;5.13;4.72;;;;;;;18.97;100.00;99118.97;4841943;29;20435;-83
2023/08/28 09:37:10;;;;;;;5.53;5.03;;;;;;;19.39;100.00;99155.66;4841573;29;20514;-83
2023/08/28 09:39:53;;;;;;;5.32;4.80;;;;;;;19.42;100.00;99143.03;4842028;29;20024;-84
2023/08/28 09:42:21;;;;;;;5.10;4.60;;;;;;;19.64;100.00;99139.28;4841645;29;20026;-84
2023/08/28 09:44:50;;;;;;;4.55;4.15;;;;;;;19.99;100.00;99161.56;4841804;29;20026;-84
2023/08/28 09:47:23;;;;;;;4.75;4.35;;;;;;;20.14;100.00;99152.22;4841402;29;20585;-84
2023/08/28 09:49:52;;;;;;;5.65;5.07;;;;;;;20.30;100.00;99148.94;4840187;29;20029;-84
2023/08/28 09:52:25;;;;;;;5.45;4.95;;;;;;;20.33;100.00;99135.44;4841465;29;20081;-83
2023/08/28 09:55:04;;;;;;;4.68;4.30;;;;;;;20.36;100.00;99137.78;4841752;29;20414;-84
2023/08/28 09:57:30;;;;;;;5.05;4.63;;;;;;;20.41;100.00;99135.53;4841518;29;20377;-84
2023/08/28 09:59:55;;;;;;;6.07;5.47;;;;;;;20.41;100.00;99137.34;4841565;29;20113;-83
2023/08/28 10:02:21;;;;;;;4.63;4.22;;;;;;;20.49;100.00;99128.72;4841222;29;20046;-84
2023/08/28 10:04:51;;;;;;;6.50;4.78;;;;;;;20.57;100.00;99128.81;4840367;29;20025;-84
2023/08/28 10:07:21;;;;;;;5.47;4.53;;;;;;;20.55;100.00;99133.41;4840529;29;20435;-83
2023/08/28 10:09:47;;;;;;;4.70;4.30;;;;;;;20.54;100.00;99129.09;4841300;29;20042;-84
2023/08/28 10:12:13;;;;;;;4.85;4.35;;;;;;;20.46;100.00;99106.00;4841038;29;20030;-84
2023/08/28 10:14:39;;;;;;;5.18;4.65;;;;;;;20.55;100.00;99117.53;4841377;29;20078;-84
2023/08/28 10:17:06;;;;;;;5.60;5.00;;;;;;;20.43;100.00;99125.63;4841326;29;20062;-83
2023/08/28 10:19:38;;;;;;;5.22;4.72;;;;;;;20.42;100.00;99139.00;4841374;29;20081;-84
2023/08/28 10:22:06;;;;;;;;;;;;;;;20.38;100.00;99138.47;4841810;29;20481;-84
2023/08/28 10:24:34;;;;;;;5.65;4.97;;;;;;;20.21;100.00;99114.59;4824941;29;20392;-84
2023/08/28 10:27:00;;;;;;;4.90;4.50;;;;;;;20.22;100.00;99130.31;4840894;29;20482;-84
2023/08/28 10:29:26;;;;;;;5.25;4.63;;;;;;;20.06;100.00;99128.31;4841414;29;20094;-84
2023/08/28 10:31:54;;;;;;;5.57;4.95;;;;;;;19.89;100.00;99105.28;4841215;29;20034;-83
2023/08/28 10:34:20;;;;;;;4.97;4.47;;;;;;;19.86;100.00;99111.66;4840855;29;20040;-83
2023/08/28 10:36:46;;;;;;;5.10;4.60;;;;;;;19.72;100.00;99098.94;4841250;29;20068;-83
2023/08/28 10:39:11;;;;;;;5.05;4.65;;;;;;;19.81;100.00;99127.13;4824591;29;20062;-84
2023/08/28 10:41:38;;;;;;;6.95;4.85;;;;;;;19.83;100.00;99126.97;4839843;29;20374;-84
2023/08/28 10:44:05;;;;;;;7.38;5.57;;;;;;;19.66;100.00;99104.78;4840985;29;20491;-84
2023/08/28 10:46:31;;;;;;;4.53;4.13;;;;;;;19.74;100.00;99125.19;4841252;29;20059;-83
2023/08/28 10:48:58;;;;;;;4.82;4.43;;;;;;;19.60;100.00;99111.44;4841144;29;20022;-84
2023/08/28 10:51:37;;;;;;;5.18;4.75;;;;;;;19.75;100.00;99119.75;4840781;29;20045;-83
2023/08/28 10:54:08;;;;;;;4.82;4.28;;;;;;;19.72;100.00;99108.63;4840735;29;20029;-84
2023/08/28 10:56:35;;;;;;;5.70;5.20;;;;;;;19.65;100.00;99113.69;4841100;29;20086;-84
2023/08/28 10:59:18;;;;;;;5.15;4.22;;;;;;;19.68;100.00;99131.91;4840899;29;20277;-84
2023/08/28 11:02:05;;;;;;;6.13;5.60;;;;;;;19.58;100.00;99129.22;4841069;29;20462;-84
2023/08/28 11:04:37;;;;;;;5.53;5.03;;;;;;;19.57;100.00;99126.72;4840953;29;20033;-83
2023/08/28 11:07:04;;;;;;;6.95;4.97;;;;;;;19.53;100.00;99112.13;4839593;29;20034;-83
2023/08/28 11:09:29;;;;;;;5.63;5.10;;;;;;;19.78;100.00;99142.44;4840812;29;20045;-84
2023/08/28 11:11:57;;;;;;;6.30;5.60;;;;;;;19.83;100.00;99134.91;4841129;29;20029;-84
2023/08/28 11:14:29;;;;;;;7.07;5.90;;;;;;;19.82;100.00;99122.69;4840466;29;20125;-83
2023/08/28 11:17:13;;;;;;;;;;;;;;;19.87;100.00;99123.91;4841257;29;20030;-84
2023/08/28 11:19:54;;;;;;;7.05;5.25;;;;;;;19.99;100.00;99121.94;4844217;29;20373;-84
2023/08/28 11:22:31;;;;;;;4.70;4.27;;;;;;;20.14;100.00;99140.78;4844121;29;20033;-84
2023/08/28 11:24:57;;;;;;;5.25;4.75;;;;;;;20.15;100.00;99132.72;4844531;29;20057;-84